Time;durP1;ratioP1;P1;durP2;ratioP2;P2;SDS_P1;SDS_P2;PMS_P1;PMS_P2;Temp;Humidity;BMP_temperature;BMP_pressure;BME280_temperature;BME280_humidity;BME280_pressure;Samples;Min_cycle;Max_cycle;Signal;HPM_P1;HPM_P2
2023/07/23 00:01:57;;;;;;;11.10;10.00;;;17.70;92.50;;;20.33;63.20;100952.47;4994353;28;20670;-60
2023/07/23 00:04:24;;;;;;;10.27;9.00;;;17.70;92.40;;;20.30;63.43;100936.91;4994494;28;20692;-60
2023/07/23 00:06:52;;;;;;;10.50;9.50;;;17.70;92.30;;;20.27;63.27;100943.53;4994461;28;20219;-59
2023/07/23 00:09:19;;;;;;;11.23;9.70;;;17.70;92.30;;;20.21;63.33;100939.88;4994187;28;20306;-60
2023/07/23 00:11:46;;;;;;;10.37;9.37;;;17.70;92.30;;;20.20;63.62;100927.59;4994489;28;20731;-59
2023/07/23 00:14:13;;;;;;;10.60;9.50;;;17.70;92.30;;;20.20;63.82;100932.94;4994319;28;20216;-60
2023/07/23 00:16:40;;;;;;;10.33;9.13;;;17.70;92.30;;;20.23;63.30;100932.47;4993909;28;20196;-60
2023/07/23 00:19:10;;;;;;;10.77;9.67;;;17.70;92.30;;;20.28;63.38;100930.97;4994181;28;20222;-61
2023/07/23 00:21:37;;;;;;;9.73;8.50;;;17.70;92.30;;;20.34;63.04;100922.00;4994158;28;20192;-57
2023/07/23 00:24:04;;;;;;;8.80;7.87;;;17.70;92.20;;;20.42;62.90;100921.66;4993952;28;20224;-60
2023/07/23 00:26:32;;;;;;;12.23;9.70;;;17.70;92.30;;;20.48;62.71;100921.53;4993900;28;20348;-57
2023/07/23 00:29:00;;;;;;;11.13;9.97;;;17.70;92.20;;;20.48;62.73;100908.16;4994266;28;20718;-61
2023/07/23 00:31:27;;;;;;;12.37;9.27;;;17.80;92.20;;;20.47;63.04;100906.53;4994148;28;20283;-62
2023/07/23 00:33:54;;;;;;;9.40;8.50;;;17.80;92.10;;;20.50;62.41;100900.72;4994451;28;20195;-61
2023/07/23 00:36:22;;;;;;;10.70;9.13;;;17.80;92.10;;;20.55;62.27;100908.03;4994163;28;20200;-62
2023/07/23 00:38:50;;;;;;;10.40;9.30;;;17.80;92.10;;;20.51;62.71;100902.34;4993772;28;20192;-60
2023/07/23 00:41:17;;;;;;;11.30;10.20;;;17.80;91.90;;;20.46;62.53;100899.56;4994108;28;20198;-57
2023/07/23 00:43:44;;;;;;;11.03;9.87;;;17.90;91.90;;;20.42;62.41;100893.03;4993801;28;20246;-61
2023/07/23 00:46:13;;;;;;;11.93;10.73;;;17.80;91.90;;;20.43;62.78;100888.50;4994362;28;20223;-60
2023/07/23 00:48:40;;;;;;;11.53;10.40;;;17.80;92.00;;;20.36;63.26;100887.81;4993898;28;20208;-58
2023/07/23 00:51:08;;;;;;;10.00;9.00;;;17.80;92.00;;;20.32;63.43;100886.69;4993551;28;20238;-64
2023/07/23 00:53:36;;;;;;;12.13;10.87;;;17.80;92.00;;;20.29;63.52;100876.44;5007868;28;20202;-60
2023/07/23 00:56:03;;;;;;;14.93;10.50;;;17.80;92.20;;;20.28;63.38;100872.16;5013781;28;20365;-60
2023/07/23 00:58:31;;;;;;;14.07;10.53;;;17.80;92.20;;;20.27;63.25;100873.19;5000148;28;20226;-60
2023/07/23 01:00:58;;;;;;;11.83;10.60;;;17.80;92.20;;;20.25;63.57;100871.56;4993741;28;20258;-60
2023/07/23 01:03:26;;;;;;;11.63;10.50;;;17.70;92.20;;;20.25;63.20;100871.56;4993918;28;20196;-56
2023/07/23 01:06:01;;;;;;;11.07;10.07;;;17.70;92.30;;;20.23;63.17;100868.31;4994058;28;20192;-60
2023/07/23 01:08:28;;;;;;;11.30;10.10;;;17.70;92.30;;;20.24;63.49;100864.59;4993796;28;20187;-57
2023/07/23 01:10:57;;;;;;;12.10;10.40;;;17.70;92.40;;;20.23;63.59;100857.63;4993995;28;20230;-61
2023/07/23 01:13:24;;;;;;;15.23;10.93;;;17.70;92.40;;;20.20;63.88;100852.72;4993943;28;20275;-61
2023/07/23 01:15:53;;;;;;;16.17;11.13;;;17.70;92.40;;;20.14;63.68;100848.31;4993472;28;20200;-61
2023/07/23 01:18:21;;;;;;;11.20;10.10;;;17.70;92.40;;;20.12;63.91;100839.72;4993252;28;20203;-60
2023/07/23 01:20:48;;;;;;;12.13;10.83;;;17.60;92.30;;;20.14;63.69;100842.13;4992234;28;20222;-61
2023/07/23 01:23:16;;;;;;;13.20;9.80;;;17.70;92.40;;;20.12;63.74;100839.72;4992451;28;20195;-60
2023/07/23 01:25:43;;;;;;;13.57;11.03;;;17.70;92.40;;;20.10;63.69;100836.47;4993555;28;20279;-60
2023/07/23 01:28:10;;;;;;;11.40;10.23;;;17.60;92.30;;;20.07;63.94;100831.59;4993821;28;20579;-60
2023/07/23 01:30:37;;;;;;;11.03;9.27;;;17.60;92.40;;;20.09;64.31;100826.00;4996307;28;20250;-57
2023/07/23 01:33:05;;;;;;;11.53;10.40;;;17.60;92.40;;;20.07;63.65;100823.56;5015163;28;20213;-60
2023/07/23 01:35:32;;;;;;;15.83;10.20;;;17.60;92.40;;;20.06;63.99;100811.22;5016646;28;20199;-60
2023/07/23 01:38:01;;;;;;;14.03;10.53;;;17.60;92.40;;;20.07;64.25;100812.06;5016758;28;20200;-61
2023/07/23 01:40:30;;;;;;;12.47;10.60;;;17.60;92.50;;;20.04;63.78;100805.31;5016401;28;20626;-60
2023/07/23 01:42:57;;;;;;;11.63;10.17;;;17.60;92.50;;;20.06;63.79;100808.56;5016475;28;20283;-58
2023/07/23 01:45:28;;;;;;;14.80;10.77;;;17.60;92.50;;;20.04;64.32;100805.31;5016739;28;20202;-60
2023/07/23 01:47:57;;;;;;;10.77;9.67;;;17.60;92.50;;;20.05;64.33;100801.59;5015773;28;20207;-58
2023/07/23 01:50:24;;;;;;;12.33;10.07;;;17.60;92.50;;;20.13;64.33;100800.44;5014628;28;20242;-61
2023/07/23 01:52:51;;;;;;;11.43;10.23;;;17.60;92.60;;;20.17;63.92;100798.91;5016632;28;20202;-60
2023/07/23 01:55:18;;;;;;;11.17;10.07;;;17.60;92.60;;;20.21;63.51;100787.50;5016640;28;20317;-59
2023/07/23 01:57:46;;;;;;;12.33;11.00;;;17.60;92.60;;;20.22;63.91;100791.84;5009245;28;20275;-61
2023/07/23 02:00:14;;;;;;;11.33;10.23;;;17.60;92.60;;;20.20;64.12;100783.22;4995817;28;20290;-58
2023/07/23 02:02:41;;;;;;;14.10;10.40;;;17.60;92.60;;;20.20;64.08;100777.06;4996738;28;20223;-58
2023/07/23 02:05:08;;;;;;;12.50;11.00;;;17.60;92.50;;;20.20;63.80;100780.56;4996838;28;20613;-60
2023/07/23 02:07:35;;;;;;;11.23;9.63;;;17.60;92.50;;;20.16;63.67;100776.72;4996573;28;20720;-57
2023/07/23 02:10:03;;;;;;;13.37;10.43;;;17.60;92.50;;;20.17;64.18;100783.69;4995089;28;20255;-60
2023/07/23 02:12:30;;;;;;;11.27;10.07;;;17.60;92.50;;;20.14;63.73;100778.00;4996504;28;20279;-60
2023/07/23 02:14:59;;;;;;;11.97;10.10;;;17.60;92.50;;;20.15;63.81;100780.44;4996413;28;20231;-58
2023/07/23 02:17:26;;;;;;;10.77;9.53;;;17.60;92.60;;;20.15;64.22;100777.78;4996523;28;20665;-60
2023/07/23 02:19:53;;;;;;;14.93;10.00;;;17.60;92.60;;;20.15;63.84;100775.09;4996322;28;20211;-61
2023/07/23 02:22:20;;;;;;;11.73;10.53;;;17.60;92.60;;;20.17;63.84;100773.00;4996354;28;20215;-60
2023/07/23 02:24:47;;;;;;;11.20;10.10;;;17.60;92.60;;;20.11;64.13;100779.28;4996391;28;20279;-60
2023/07/23 02:27:15;;;;;;;10.70;9.10;;;17.60;92.60;;;20.10;63.87;100772.31;4996171;28;20276;-58
2023/07/23 02:29:42;;;;;;;12.07;9.30;;;17.60;92.60;;;20.11;64.27;100768.59;4996101;28;20239;-59
2023/07/23 02:32:11;;;;;;;10.70;9.53;;;17.60;92.60;;;20.11;63.74;100763.22;4996086;28;20199;-57
2023/07/23 02:34:38;;;;;;;12.80;9.63;;;17.60;92.60;;;20.12;64.08;100770.22;4996101;28;20200;-60
2023/07/23 02:37:06;;;;;;;10.73;9.60;;;17.60;92.60;;;20.18;63.90;100766.59;4996160;28;20198;-57
2023/07/23 02:39:32;;;;;;;12.70;9.90;;;17.60;92.60;;;20.20;63.58;100751.16;4995988;28;20300;-60
2023/07/23 02:41:59;;;;;;;10.77;9.67;;;17.60;92.60;;;20.15;63.68;100759.06;4994924;28;20661;-58
2023/07/23 02:44:27;;;;;;;11.47;9.57;;;17.60;92.60;;;20.14;63.60;100762.78;4996111;28;20216;-57
2023/07/23 02:46:53;;;;;;;11.77;9.87;;;17.60;92.60;;;20.14;64.05;100762.78;4996146;28;20188;-61
2023/07/23 02:49:22;;;;;;;12.27;9.80;;;17.60;92.50;;;20.15;64.18;100758.25;4995817;28;20249;-59
2023/07/23 02:51:49;;;;;;;14.07;9.77;;;17.60;92.60;;;20.21;63.59;100762.63;4995495;28;20551;-61
2023/07/23 02:54:16;;;;;;;11.00;9.73;;;17.70;92.60;;;20.20;63.68;100745.81;5015145;28;20278;-60
2023/07/23 02:56:43;;;;;;;9.90;8.90;;;17.60;92.60;;;20.25;63.76;100753.94;5015058;28;20187;-61
2023/07/23 02:59:10;;;;;;;14.40;10.07;;;17.70;92.60;;;20.24;63.99;100757.66;4996080;28;20216;-60
2023/07/23 03:01:37;;;;;;;10.33;8.90;;;17.70;92.50;;;20.19;63.52;100749.50;4995503;28;20210;-61
2023/07/23 03:04:04;;;;;;;11.23;9.47;;;17.70;92.50;;;20.14;63.72;100751.25;4995653;28;20274;-61
2023/07/23 03:06:32;;;;;;;11.73;8.67;;;17.70;92.50;;;20.07;63.90;100732.69;4995826;28;20547;-59
2023/07/23 03:08:59;;;;;;;12.30;9.40;;;17.70;92.50;;;20.06;63.94;100738.28;4994919;28;20621;-60
2023/07/23 03:11:26;;;;;;;9.40;8.27;;;17.70;92.50;;;20.08;64.31;100742.34;4995815;28;20261;-61
2023/07/23 03:13:54;;;;;;;11.47;8.40;;;17.60;92.50;;;20.14;64.06;100736.03;4995417;28;20195;-60
2023/07/23 03:16:21;;;;;;;11.77;9.23;;;17.60;92.40;;;20.13;63.72;100731.72;4995617;28;20218;-60
2023/07/23 03:18:48;;;;;;;12.47;8.77;;;17.60;92.40;;;20.17;63.66;100740.09;4994923;28;20527;-61
2023/07/23 03:21:15;;;;;;;10.57;8.97;;;17.70;92.50;;;20.20;63.47;100736.97;4995206;28;20259;-60
2023/07/23 03:23:43;;;;;;;10.10;8.00;;;17.70;92.50;;;20.22;63.56;100743.72;4991955;28;20228;-60
2023/07/23 03:26:10;;;;;;;9.83;8.83;;;17.70;92.40;;;20.20;63.33;100735.09;4975808;28;20192;-60
2023/07/23 03:28:37;;;;;;;10.33;8.13;;;17.70;92.40;;;20.20;63.64;100727.09;4975540;28;20572;-61
2023/07/23 03:31:04;;;;;;;9.07;8.17;;;17.70;92.30;;;20.19;63.34;100730.78;4975634;28;20308;-60
2023/07/23 03:33:31;;;;;;;12.00;8.63;;;17.70;92.30;;;20.19;63.28;100732.66;4975482;28;20267;-60
2023/07/23 03:35:58;;;;;;;9.63;7.80;;;17.70;92.30;;;20.20;63.14;100729.75;4975772;28;20220;-60
2023/07/23 03:38:25;;;;;;;9.90;8.87;;;17.70;92.20;;;20.20;63.10;100724.41;4975423;28;20192;-60
2023/07/23 03:40:53;;;;;;;9.80;8.23;;;17.70;92.30;;;20.22;63.19;100710.84;4975556;28;20211;-60
2023/07/23 03:43:20;;;;;;;10.93;8.47;;;17.70;92.30;;;20.22;63.27;100717.00;4975864;28;20275;-60
2023/07/23 03:45:47;;;;;;;8.87;8.07;;;17.70;92.30;;;20.27;63.55;100723.47;4975594;28;20263;-59
2023/07/23 03:48:14;;;;;;;9.13;8.20;;;17.70;92.40;;;20.29;63.38;100711.50;4976157;28;20231;-60
2023/07/23 03:50:42;;;;;;;9.13;8.20;;;17.70;92.40;;;20.29;63.04;100711.50;4974997;28;20267;-59
2023/07/23 03:53:09;;;;;;;11.20;7.50;;;17.80;92.40;;;20.31;63.73;100704.03;4995850;28;20695;-60
2023/07/23 03:55:35;;;;;;;13.43;8.03;;;17.70;92.40;;;20.36;63.09;100700.66;5014623;28;20199;-59
2023/07/23 03:58:04;;;;;;;11.13;8.23;;;17.80;92.40;;;20.39;63.08;100705.53;5004982;28;20245;-60
2023/07/23 04:00:31;;;;;;;9.87;8.53;;;17.80;92.40;;;20.43;63.43;100704.81;4994024;28;20259;-60
2023/07/23 04:02:58;;;;;;;9.13;7.30;;;17.80;92.40;;;20.48;63.06;100696.88;4994680;28;20566;-59
2023/07/23 04:05:25;;;;;;;11.57;8.33;;;17.80;92.40;;;20.49;63.02;100677.09;4994797;28;20220;-58
2023/07/23 04:07:52;;;;;;;8.93;7.87;;;17.80;92.30;;;20.52;62.92;100673.13;4994584;28;20630;-59
2023/07/23 04:10:19;;;;;;;9.87;6.67;;;17.80;92.40;;;20.61;63.07;100677.06;4994367;28;20310;-59
2023/07/23 04:12:47;;;;;;;9.20;6.73;;;17.90;92.50;;;20.70;63.20;100670.25;4994456;28;20687;-60
2023/07/23 04:15:15;;;;;;;8.03;6.83;;;17.90;92.50;;;20.75;62.83;100667.66;4994117;28;20219;-59
2023/07/23 04:17:42;;;;;;;8.20;6.80;;;18.00;92.50;;;20.79;62.24;100666.09;4994356;28;20715;-59
2023/07/23 04:20:10;;;;;;;10.17;7.57;;;18.00;92.40;;;20.82;62.59;100668.31;4994383;28;20623;-60
2023/07/23 04:22:37;;;;;;;10.50;8.20;;;18.10;92.30;;;20.80;62.46;100662.41;4994413;28;20745;-58
2023/07/23 04:25:07;;;;;;;8.07;6.60;;;18.10;92.10;;;20.82;61.96;100660.28;4994304;28;20275;-59
2023/07/23 04:27:34;;;;;;;10.83;7.93;;;18.10;92.10;;;20.83;62.47;100659.22;4994374;28;20198;-58
2023/07/23 04:30:01;;;;;;;10.53;7.87;;;18.10;92.10;;;20.84;62.34;100655.50;4993794;28;20306;-59
2023/07/23 04:32:29;;;;;;;9.33;8.00;;;18.10;92.00;;;20.79;61.90;100658.09;4994341;28;20670;-59
2023/07/23 04:34:56;;;;;;;9.73;8.17;;;18.10;91.90;;;20.73;62.22;100653.69;4994194;28;20191;-60
2023/07/23 04:37:23;;;;;;;8.70;7.53;;;18.10;91.80;;;20.72;62.44;100646.72;4994288;28;20555;-60
2023/07/23 04:39:50;;;;;;;10.83;7.77;;;18.10;92.00;;;20.72;62.34;100649.41;4993636;28;20580;-61
2023/07/23 04:42:18;;;;;;;8.63;6.67;;;18.10;91.90;;;20.67;62.07;100652.00;4994146;28;20192;-60
2023/07/23 04:44:45;;;;;;;12.20;7.33;;;18.10;91.80;;;20.67;62.56;100652.81;4994465;28;20196;-57
2023/07/23 04:47:12;;;;;;;9.80;7.10;;;18.10;91.90;;;20.66;62.57;100642.34;4994218;28;20187;-60
2023/07/23 04:49:40;;;;;;;10.57;8.17;;;18.10;91.90;;;20.64;62.44;100644.44;4993764;28;20212;-60
2023/07/23 04:52:07;;;;;;;8.77;7.53;;;18.00;91.90;;;20.60;63.02;100644.13;4994120;28;20200;-60
2023/07/23 04:54:34;;;;;;;8.47;7.17;;;18.00;92.10;;;20.58;62.34;100643.56;4993902;28;20234;-60
2023/07/23 04:57:01;;;;;;;9.10;7.13;;;18.00;92.10;;;20.58;62.76;100648.09;4993793;28;20243;-61
2023/07/23 04:59:28;;;;;;;13.83;8.17;;;18.00;92.20;;;20.52;63.06;100646.38;4993630;28;20335;-61
2023/07/23 05:01:55;;;;;;;9.40;7.80;;;18.00;92.30;;;20.46;63.31;100642.84;4993806;28;20278;-58
2023/07/23 05:04:23;;;;;;;12.77;8.63;;;18.00;92.30;;;20.44;63.13;100638.78;4995512;28;20704;-60
2023/07/23 05:06:52;;;;;;;11.63;8.10;;;18.00;92.40;;;20.42;63.16;100641.66;4997698;28;20206;-57
2023/07/23 05:09:19;;;;;;;11.03;7.33;;;17.90;92.30;;;20.46;63.39;100642.00;4997597;28;20550;-62
2023/07/23 05:11:46;;;;;;;10.17;7.97;;;17.90;92.50;;;20.38;63.53;100637.03;4997828;28;20212;-58
2023/07/23 05:14:13;;;;;;;8.77;7.33;;;17.90;92.40;;;20.34;64.05;100636.72;4997909;28;20199;-61
2023/07/23 05:16:40;;;;;;;8.37;7.37;;;17.90;92.50;;;20.33;63.77;100637.78;4997570;28;20543;-60
2023/07/23 05:19:07;;;;;;;10.30;8.10;;;17.90;92.50;;;20.31;64.06;100633.72;4997240;28;20617;-58
2023/07/23 05:21:36;;;;;;;7.87;7.10;;;17.80;92.60;;;20.29;64.31;100630.47;4997641;28;20216;-60
2023/07/23 05:24:05;;;;;;;7.43;6.63;;;17.90;92.70;;;20.32;64.47;100627.34;4998232;28;20649;-60
2023/07/23 05:26:32;;;;;;;9.13;7.30;;;17.90;92.80;;;20.37;64.09;100622.91;4997522;28;20194;-60
2023/07/23 05:28:59;;;;;;;8.27;7.23;;;17.90;92.90;;;20.39;63.96;100620.78;4997124;28;20191;-61
2023/07/23 05:31:26;;;;;;;8.70;6.60;;;17.90;92.80;;;20.39;63.85;100615.44;4997156;28;20230;-59
2023/07/23 05:33:53;;;;;;;7.37;6.60;;;17.90;92.80;;;20.40;64.01;100618.91;4997193;28;20671;-60
2023/07/23 05:36:20;;;;;;;10.77;7.53;;;17.90;92.90;;;20.39;63.94;100610.09;4997405;28;20231;-60
2023/07/23 05:38:47;;;;;;;7.57;6.67;;;17.90;92.70;;;20.34;64.38;100611.84;4997371;28;20211;-60
2023/07/23 05:41:16;;;;;;;8.97;7.27;;;17.90;92.70;;;20.28;63.86;100616.28;4997065;28;20568;-60
2023/07/23 05:43:43;;;;;;;7.50;6.40;;;17.90;92.60;;;20.25;64.48;100619.47;4995925;28;20674;-60
2023/07/23 05:46:10;;;;;;;9.10;6.97;;;17.90;92.60;;;20.15;64.50;100609.38;4996729;28;20215;-60
2023/07/23 05:48:37;;;;;;;9.17;6.67;;;17.80;92.50;;;20.15;64.36;100609.38;4996968;28;20298;-59
2023/07/23 05:51:04;;;;;;;7.57;6.70;;;17.80;92.60;;;19.99;64.28;100596.75;4996702;28;20230;-58
2023/07/23 05:53:31;;;;;;;10.47;6.33;;;17.70;92.60;;;19.98;64.91;100595.16;5010464;28;20350;-59
2023/07/23 05:55:58;;;;;;;10.33;6.33;;;17.70;92.80;;;20.01;65.26;100594.69;5016652;28;20187;-60
2023/07/23 05:58:28;;;;;;;12.73;6.67;;;17.70;92.90;;;20.02;65.13;100587.47;5003352;28;20204;-60
2023/07/23 06:00:55;;;;;;;7.23;6.50;;;17.70;92.90;;;20.00;64.57;100587.72;4996797;28;20683;-59
2023/07/23 06:03:23;;;;;;;7.73;6.10;;;17.70;92.90;;;20.03;64.72;100584.56;4996748;28;20665;-61
2023/07/23 06:05:50;;;;;;;6.87;6.17;;;17.70;93.00;;;20.03;64.82;100587.25;4996795;28;20196;-60
2023/07/23 06:08:17;;;;;;;7.83;5.90;;;17.70;93.00;;;20.04;65.04;100580.03;4996996;28;20724;-60
2023/07/23 06:10:44;;;;;;;6.90;6.20;;;17.70;92.90;;;20.07;64.73;100580.34;4996424;28;20222;-60
2023/07/23 06:13:11;;;;;;;6.73;5.30;;;17.80;93.10;;;20.19;65.22;100574.94;4996663;28;20258;-60
2023/07/23 06:15:39;;;;;;;7.67;6.60;;;17.70;93.10;;;20.30;65.13;100573.28;4996678;28;20274;-59
2023/07/23 06:18:06;;;;;;;8.10;6.50;;;17.80;93.20;;;20.38;64.50;100575.56;4996719;28;20274;-60
2023/07/23 06:20:33;;;;;;;7.97;6.20;;;17.80;93.10;;;20.40;64.54;100566.22;4996363;28;20218;-60
2023/07/23 06:23:01;;;;;;;9.07;6.53;;;17.90;93.00;;;20.46;64.24;100559.94;4996732;28;20219;-60
2023/07/23 06:25:28;;;;;;;8.83;6.03;;;17.90;93.00;;;20.55;63.91;100561.13;4996931;28;20226;-60
2023/07/23 06:27:55;;;;;;;6.57;5.50;;;18.00;93.10;;;20.69;64.16;100564.28;4996895;28;20191;-60
2023/07/23 06:30:22;;;;;;;7.70;5.80;;;18.00;93.10;;;20.80;64.00;100564.19;4995672;28;20251;-60
2023/07/23 06:32:50;;;;;;;9.27;6.70;;;18.10;93.00;;;20.87;63.49;100564.03;4996037;28;20195;-62
2023/07/23 06:35:18;;;;;;;7.53;5.90;;;18.20;92.90;;;20.86;63.23;100557.03;4996251;28;20204;-61
2023/07/23 06:37:44;;;;;;;6.93;6.10;;;18.20;92.60;;;20.86;62.81;100562.41;4996331;28;20203;-61
2023/07/23 06:40:12;;;;;;;8.07;6.20;;;18.20;92.50;;;20.77;63.32;100564.69;4995915;28;20212;-61
2023/07/23 06:42:39;;;;;;;7.93;5.90;;;18.20;92.40;;;20.70;63.59;100564.06;4996430;28;20194;-61
2023/07/23 06:45:08;;;;;;;7.33;6.33;;;18.20;92.50;;;20.64;63.27;100554.31;4996315;28;20195;-60
2023/07/23 06:47:38;;;;;;;6.93;5.77;;;18.20;92.50;;;20.65;63.54;100549.78;4995905;28;20210;-61
2023/07/23 06:50:07;;;;;;;6.53;5.83;;;18.20;92.50;;;20.65;63.46;100550.59;4995661;28;20572;-62
2023/07/23 06:52:34;;;;;;;7.83;6.57;;;18.30;92.60;;;20.63;64.12;100551.91;5001640;28;20234;-60
2023/07/23 06:55:02;;;;;;;8.53;6.10;;;18.20;92.50;;;20.62;64.01;100544.91;5015126;28;20612;-60
2023/07/23 06:57:28;;;;;;;7.43;5.93;;;18.20;92.50;;;20.70;63.96;100547.19;5010461;28;20206;-59
2023/07/23 06:59:55;;;;;;;9.23;6.10;;;18.20;92.60;;;20.73;63.35;100542.13;4995320;28;20251;-60
2023/07/23 07:02:22;;;;;;;8.17;5.80;;;18.20;92.50;;;20.83;63.54;100533.44;4995583;28;20592;-60
2023/07/23 07:04:51;;;;;;;7.47;6.00;;;18.30;92.60;;;20.88;63.58;100528.16;4995704;28;20199;-55
2023/07/23 07:07:19;;;;;;;7.73;6.30;;;18.30;92.50;;;20.90;62.52;100534.06;4995793;28;20223;-59
2023/07/23 07:09:46;;;;;;;8.87;5.43;;;18.30;92.20;;;20.94;62.85;100519.94;4983896;28;20259;-64
2023/07/23 07:12:13;;;;;;;8.03;5.57;;;18.40;92.20;;;21.06;62.79;100511.03;4976072;28;20224;-62
2023/07/23 07:14:40;;;;;;;7.13;5.80;;;18.50;92.30;;;21.12;62.13;100507.38;4975700;28;20635;-61
2023/07/23 07:17:07;;;;;;;8.27;6.30;;;18.50;92.10;;;21.21;62.51;100512.03;4975859;28;20231;-60
2023/07/23 07:19:34;;;;;;;6.67;5.93;;;18.60;92.20;;;21.33;62.42;100509.22;4975438;28;20306;-62
2023/07/23 07:22:02;;;;;;;6.17;5.50;;;18.60;92.10;;;21.42;61.65;100505.03;4975884;28;20271;-60
2023/07/23 07:24:30;;;;;;;7.00;5.60;;;18.70;92.00;;;21.38;61.65;100504.75;4975942;28;20200;-60
2023/07/23 07:26:57;;;;;;;5.63;4.93;;;18.70;91.80;;;21.40;61.88;100494.56;4975524;28;20196;-57
2023/07/23 07:29:24;;;;;;;8.67;5.20;;;18.70;91.80;;;21.52;61.60;100497.94;4975540;28;20221;-60
2023/07/23 07:31:51;;;;;;;6.80;5.93;;;18.80;92.00;;;21.66;61.55;100500.19;4974162;28;20228;-60
2023/07/23 07:34:18;;;;;;;7.00;6.30;;;18.90;92.10;;;21.68;61.27;100496.19;4975757;28;20189;-60
2023/07/23 07:36:45;;;;;;;8.10;6.33;;;18.90;91.80;;;21.73;61.27;100498.16;4975842;28;20220;-61
2023/07/23 07:39:12;;;;;;;7.07;5.47;;;19.00;91.80;;;21.74;60.79;100499.75;4975238;28;20252;-58
2023/07/23 07:41:41;;;;;;;6.60;5.80;;;19.00;91.60;;;21.82;61.11;100496.63;4975735;28;20268;-60
2023/07/23 07:44:08;;;;;;;6.13;5.50;;;19.10;91.90;;;21.85;61.27;100498.78;4975637;28;20203;-61
2023/07/23 07:46:35;;;;;;;6.80;6.20;;;19.10;91.70;;;21.85;60.35;100491.56;4976082;28;20220;-60
2023/07/23 07:49:02;;;;;;;8.90;5.80;;;19.10;91.40;;;21.86;60.87;100482.47;4989809;28;20201;-57
2023/07/23 07:51:29;;;;;;;6.80;5.97;;;19.20;91.50;;;21.89;61.06;100491.88;4974791;28;20223;-59
2023/07/23 07:53:57;;;;;;;6.60;5.73;;;19.20;91.50;;;21.86;60.53;100481.66;5009021;28;20195;-57
2023/07/23 07:56:25;;;;;;;7.03;6.33;;;19.20;91.40;;;21.85;60.83;100480.03;5014012;28;20199;-59
2023/07/23 07:58:54;;;;;;;7.27;6.10;;;19.20;91.40;;;21.86;61.12;100473.63;4997702;28;20637;-61
2023/07/23 08:01:22;;;;;;;5.87;5.27;;;19.20;91.40;;;21.95;61.25;100466.72;4994641;28;20278;-59
2023/07/23 08:03:49;;;;;;;6.50;5.60;;;19.30;91.60;;;22.09;60.84;100473.28;4994729;28;20223;-57
2023/07/23 08:06:18;;;;;;;6.63;5.53;;;19.30;91.70;;;22.25;60.51;100469.63;5008309;28;20202;-64
2023/07/23 08:08:49;;;;;;;7.57;6.07;;;19.40;91.70;;;22.23;59.70;100474.44;5013542;28;20556;-61
2023/07/23 08:11:17;;;;;;;7.53;5.77;;;19.40;91.10;;;22.24;60.05;100466.16;5013976;28;20206;-60
2023/07/23 08:13:45;;;;;;;8.03;6.00;;;19.50;91.20;;;22.27;59.87;100461.34;5014229;28;20191;-58
2023/07/23 08:16:17;;;;;;;6.90;6.20;;;19.50;91.10;;;22.39;60.17;100464.66;5014165;28;20202;-60
2023/07/23 08:18:45;;;;;;;8.07;6.20;;;19.60;91.30;;;22.54;59.53;100462.84;5013763;28;20625;-59
2023/07/23 08:21:13;;;;;;;8.13;5.83;;;19.70;91.20;;;22.70;59.55;100461.13;5013844;28;20199;-59
2023/07/23 08:23:44;;;;;;;7.00;6.30;;;19.80;91.30;;;22.84;59.19;100463.03;5013861;28;20172;-60
2023/07/23 08:26:17;;;;;;;9.30;6.23;;;19.90;91.10;;;22.92;58.79;100459.84;5013451;28;20194;-59
2023/07/23 08:28:51;;;;;;;6.23;5.73;;;20.00;90.90;;;22.98;58.27;100462.56;5013687;28;20191;-55
2023/07/23 08:31:20;;;;;;;10.23;5.90;;;20.10;90.60;;;22.94;58.28;100461.50;5013636;28;20292;-59
2023/07/23 08:33:48;;;;;;;6.10;5.50;;;20.10;90.30;;;22.99;58.11;100464.19;5013946;28;20587;-64
2023/07/23 08:36:16;;;;;;;7.50;6.30;;;20.20;90.20;;;22.93;57.85;100460.66;5013795;28;20245;-59
2023/07/23 08:38:44;;;;;;;6.03;5.47;;;20.20;89.70;;;23.01;57.74;100462.06;5013204;28;20374;-58
2023/07/23 08:41:30;;;;;;;9.63;6.27;;;20.30;89.70;;;23.06;57.55;100464.75;5018147;28;20187;-60
2023/07/23 08:44:25;;;;;;;5.97;5.43;;;20.30;89.70;;;23.03;57.13;100460.72;5016710;28;20237;-58
2023/07/23 08:47:10;;;;;;;6.13;5.20;;;20.40;88.90;;;23.06;57.37;100456.69;5017385;28;20262;-58
2023/07/23 08:49:40;;;;;;;6.17;5.57;;;20.40;88.90;;;23.09;57.00;100458.84;5017016;28;20222;-59
2023/07/23 08:52:10;;;;;;;7.20;6.00;;;20.40;88.30;;;23.09;56.60;100465.03;5015485;28;20223;-60
2023/07/23 08:54:39;;;;;;;6.37;5.50;;;20.50;87.90;;;23.06;56.30;100459.38;4997626;28;20279;-60
2023/07/23 08:57:08;;;;;;;5.97;5.33;;;20.50;87.00;;;23.14;56.03;100456.19;4997873;28;20283;-59
2023/07/23 08:59:36;;;;;;;6.27;5.03;;;20.50;87.20;;;23.22;56.05;100455.66;4997327;28;20275;-59
2023/07/23 09:02:09;;;;;;;8.73;5.73;;;20.50;86.80;;;23.39;55.61;100458.97;4997879;28;20623;-60
2023/07/23 09:04:36;;;;;;;8.27;5.53;;;20.60;87.10;;;23.47;55.57;100455.75;4997797;28;20279;-59
2023/07/23 09:07:09;;;;;;;5.13;4.63;;;20.70;86.50;;;23.56;55.02;100464.91;4997540;28;20250;-60
2023/07/23 09:09:36;;;;;;;6.63;5.87;;;20.70;86.10;;;23.70;55.06;100462.53;4997224;28;20608;-59
2023/07/23 09:12:04;;;;;;;8.47;5.53;;;20.80;86.50;;;23.79;54.06;100463.59;4996306;28;20267;-60
2023/07/23 09:14:42;;;;;;;5.30;4.67;;;20.90;85.30;;;23.90;54.48;100466.03;4997103;28;20277;-60
2023/07/23 09:17:18;;;;;;;6.67;6.00;;;21.00;85.80;;;23.91;52.78;100462.25;4997630;28;20637;-60
2023/07/23 09:19:45;;;;;;;5.90;5.30;;;21.10;84.00;;;23.94;53.84;100459.00;4997375;28;20614;-58
2023/07/23 09:22:12;;;;;;;5.67;5.27;;;21.10;84.20;;;24.01;54.20;100456.09;4997330;28;20555;-59
2023/07/23 09:24:39;;;;;;;7.07;5.97;;;21.20;84.60;;;24.06;53.33;100454.19;4997407;28;20230;-60
2023/07/23 09:27:12;;;;;;;7.33;5.57;;;21.30;84.00;;;24.19;53.43;100461.75;4997253;28;20210;-60
2023/07/23 09:29:43;;;;;;;7.13;6.30;;;21.30;84.10;;;24.20;53.16;100463.34;4997130;28;20216;-60
2023/07/23 09:32:25;;;;;;;8.33;5.60;;;21.30;83.10;;;24.13;53.36;100460.13;4997123;28;20277;-58
2023/07/23 09:34:52;;;;;;;6.90;5.60;;;21.40;83.20;;;24.22;52.75;100473.84;4996704;28;20190;-60
2023/07/23 09:37:19;;;;;;;5.97;5.27;;;21.40;82.90;;;24.26;52.46;100484.84;4997405;28;20282;-59
2023/07/23 09:39:46;;;;;;;6.00;5.50;;;21.50;83.20;;;24.32;52.85;100483.78;4996818;28;20216;-60
2023/07/23 09:42:14;;;;;;;5.80;5.30;;;21.50;83.20;;;24.42;52.63;100486.44;4997071;28;20216;-59
2023/07/23 09:44:42;;;;;;;7.53;5.17;;;21.50;83.60;;;24.50;52.81;100491.28;4996813;28;20243;-60
2023/07/23 09:47:09;;;;;;;8.60;6.27;;;21.50;83.60;;;24.45;52.62;100491.28;4997048;28;20287;-60
2023/07/23 09:49:37;;;;;;;9.03;6.87;;;21.50;83.20;;;24.38;52.42;100494.28;4995941;28;20215;-59
2023/07/23 09:52:08;;;;;;;7.73;6.73;;;21.60;82.70;;;24.33;52.09;100496.16;4998152;28;20243;-60
2023/07/23 09:54:36;;;;;;;11.27;6.30;;;21.50;82.80;;;24.33;52.71;100493.47;5008972;28;20200;-58
2023/07/23 09:57:04;;;;;;;6.30;5.70;;;21.50;83.00;;;24.30;52.85;100491.31;4996434;28;20278;-58
2023/07/23 09:59:32;;;;;;;9.63;7.57;;;21.50;83.20;;;24.23;53.44;100497.78;4996260;28;20220;-59
2023/07/23 10:02:01;;;;;;;8.33;6.23;;;21.40;83.70;;;24.15;53.67;100501.00;4996586;28;20342;-58
2023/07/23 10:04:33;;;;;;;9.63;6.83;;;21.40;83.90;;;24.11;53.85;100502.63;4996694;28;20203;-61
2023/07/23 10:07:02;;;;;;;8.43;6.77;;;21.40;84.10;;;24.03;53.24;100500.44;4996520;28;20216;-61
2023/07/23 10:09:32;;;;;;;7.60;6.27;;;21.40;83.70;;;23.83;53.76;100511.19;4996318;28;20212;-60
2023/07/23 10:11:59;;;;;;;6.63;6.03;;;21.30;83.30;;;23.66;54.05;100502.56;4996031;28;20214;-61